Latest Coastal Weather Observations for Hamilton Island

IDQ60701

Issued at 5:51 pm EST Thursday 17 October 2019 (issued every 10 minutes, with the page automatically refreshed every 10 minutes)

About coastal observations | Map of coastal stations | Coastal observations for QLD | Marine services | Other Formats
Station Details ID: 033106 Name: HAMILTON ISLAND AIRPORT Lat: -20.37 Lon: 148.95 Height: 58.66 m
Data from the previous 72 hours. | See also: Recent months at Hamilton Island
Date/Time
EST
Wind Sea
Height
m
Swell Vis
km
Cloud Weather Temp
°C
Press
hPa
Rain since
9am
mm
Dir  Spd
kts
Gust
kts
Height
m
Period
s
Dir
17/05:30pm NNW 13 17 - - - - 10 Partly cloudy - 25.8 1014.3 0.0
17/05:00pm NNW 13 18 - - - - 10 Partly cloudy - 26.6 1014.1 0.0
17/04:30pm NW 15 18 - - - - 10 - - 26.8 1014.0 0.0
17/04:00pm NW 15 20 - - - - 10 - - 27.1 1013.7 0.0
17/03:30pm NW 16 21 - - - - 10 Partly cloudy - 27.1 1013.7 0.0
17/03:00pm NW 15 19 - - - - 10 - - 27.3 1013.8 0.0
17/02:30pm NW 16 21 - - - - 10 - - 27.5 1014.2 0.0
17/02:00pm NW 13 17 - - - - 10 Partly cloudy - 28.2 1014.7 0.0
17/01:30pm NW 14 17 - - - - 10 Partly cloudy - 27.9 1015.0 0.0
17/01:00pm NW 13 16 - - - - 10 Partly cloudy - 28.0 1015.4 0.0
17/12:30pm NNW 10 15 - - - - 10 Partly cloudy - 28.5 1015.9 0.0
17/12:00pm NNW 9 13 - - - - 10 Partly cloudy - 28.3 1016.1 0.0
17/11:30am ENE 12 15 - - - - 10 Partly cloudy - 27.8 1016.4 0.0
17/11:00am NNW 10 12 - - - - 10 Partly cloudy - 28.8 1016.8 0.0
17/10:30am NNW 7 9 - - - - 10 Partly cloudy - 26.9 1017.4 0.0
17/10:00am N 5 8 - - - - 10 Partly cloudy - 26.1 1017.5 0.0
17/09:30am NE 7 12 - - - - 10 Partly cloudy - 25.4 1017.6 0.0
17/09:00am NNE 8 10 - - - - 10 Cloudy - 25.2 1017.6 0.0
17/08:30am N 8 11 - - - - 10 Partly cloudy - 25.5 1017.4 0.0
17/08:00am NE 6 11 - - - - 10 Partly cloudy - 25.4 1017.0 0.0
17/07:30am ENE 4 6 - - - - 10 Cloudy - 25.1 1016.9 0.0
17/07:00am N 5 7 - - - - 10 Partly cloudy - 24.4 1016.2 0.0
17/06:30am NNE 7 10 - - - - 10 Cloudy - 24.2 1015.6 0.0
17/06:00am N 7 9 - - - - 10 Mostly cloudy - 24.1 1015.4 0.0
17/05:30am NNW 8 11 - - - - 10 Cloudy - 23.9 1015.0 0.0
17/05:00am N 11 15 - - - - 10 Cloudy - 24.2 1014.7 0.0
17/04:30am NNE 7 10 - - - - 10 Cloudy - 24.0 1014.4 0.0
17/04:00am N 6 8 - - - - 10 Cloudy - 24.0 1014.2 0.0
17/03:30am N 9 13 - - - - 10 Cloudy - 24.0 1013.8 0.0
17/03:00am N 8 11 - - - - 10 Mostly cloudy - 23.8 1013.8 0.0
17/02:30am N 8 13 - - - - 10 Cloudy - 23.8 1013.7 0.0
17/02:00am NNW 4 5 - - - - 10 Cloudy - 23.0 1014.0 0.0
17/01:30am N 5 7 - - - - 10 Cloudy - 23.3 1014.2 0.0
17/01:00am N 5 7 - - - - 10 Partly cloudy - 23.2 1014.4 0.0
17/12:30am N 7 9 - - - - 10 - - 23.3 1014.6 0.0
17/12:00am N 8 11 - - - - 10 - - 23.5 1014.8 0.0
 
Date/Time
EST
Wind Sea
Height
m
Swell Vis
km
Cloud Weather Temp
°C
Press
hPa
Rain since
9am
mm
Dir  Spd
kts
Gust
kts
Height
m
Period
s
Dir
16/11:30pm N 7 11 - - - - 10 - - 23.5 1014.9 0.0
16/11:00pm N 7 9 - - - - 10 - - 23.4 1015.0 0.0
16/10:30pm N 6 8 - - - - 10 - - 23.5 1015.2 0.0
16/10:00pm N 8 9 - - - - 10 - - 23.7 1015.3 0.0
16/09:30pm N 8 9 - - - - 10 - - 23.8 1015.5 0.0
16/09:00pm NNE 7 9 - - - - 10 - - 23.8 1015.5 0.0
16/08:30pm N 7 9 - - - - 10 - - 23.9 1015.4 0.0
16/08:00pm N 8 11 - - - - 10 - - 24.0 1015.2 0.0
16/07:30pm N 8 11 - - - - 10 - - 24.2 1015.1 0.0
16/07:00pm N 9 14 - - - - 10 - - 24.4 1014.7 0.0
16/06:30pm N 10 14 - - - - 10 - - 24.7 1014.4 0.0
16/06:00pm NNW 12 14 - - - - 10 Mostly clear - 24.7 1014.2 0.0
16/05:30pm NW 13 16 - - - - 10 - - 25.4 1013.8 0.0
16/05:00pm NW 14 18 - - - - 10 - - 25.9 1013.7 0.0
16/04:30pm NW 15 19 - - - - 10 Partly cloudy - 26.3 1013.3 0.0
16/04:00pm NW 16 20 - - - - 10 - - 26.3 1013.3 0.0
16/03:30pm NW 16 21 - - - - 10 - - 26.7 1013.3 0.0
16/03:00pm NW 17 22 - - - - 10 - - 26.7 1013.4 0.0
16/02:30pm NW 16 21 - - - - 10 Partly cloudy - 26.4 1013.6 0.0
16/02:00pm NW 17 22 - - - - 10 Partly cloudy - 26.7 1013.9 0.0
16/01:30pm NW 16 21 - - - - 10 Partly cloudy - 27.0 1014.2 0.0
16/01:00pm NW 16 20 - - - - 10 Partly cloudy - 26.0 1014.3 0.0
16/12:30pm NW 17 22 - - - - 10 Partly cloudy - 26.7 1014.5 0.0
16/12:00pm NW 18 24 - - - - 10 Mostly clear - 26.8 1015.0 0.0
16/11:30am NW 17 22 - - - - 10 Partly cloudy - 26.2 1015.2 0.0
16/11:00am NW 16 21 - - - - 10 Partly cloudy - 26.4 1015.3 0.0
16/10:30am NW 15 19 - - - - 10 Partly cloudy - 25.8 1015.5 0.0
16/10:00am NW 15 19 - - - - 10 - - 25.9 1015.8 0.0
16/09:30am NW 15 19 - - - - 10 Partly cloudy - 25.6 1016.0 0.0
16/09:00am NW 12 17 - - - - 10 - - 25.3 1016.0 0.0
16/08:30am NNW 14 17 - - - - 10 - - 25.4 1015.7 0.0
16/08:00am NNW 9 11 - - - - 10 - - 25.1 1015.8 0.0
16/07:30am N 10 13 - - - - 10 Partly cloudy - 24.6 1015.5 0.0
16/07:00am N 10 15 - - - - 10 - - 24.0 1015.1 0.0
16/06:30am N 9 13 - - - - 10 Partly cloudy - 23.5 1014.7 0.0
16/06:00am N 8 12 - - - - 10 Mostly clear - 22.9 1014.5 0.0
16/05:30am N 10 13 - - - - 10 - - 22.9 1013.9 0.0
16/05:00am N 9 14 - - - - 10 Partly cloudy - 22.9 1013.6 0.0
16/04:30am NNE 8 11 - - - - 10 Partly cloudy - 23.0 1013.3 0.0
16/04:12am NNE 7 11 - - - - 10 Partly cloudy - 23.1 1013.1 0.0
16/04:00am NNE 8 12 - - - - 10 Partly cloudy - 23.0 1012.9 0.0
16/03:39am N 9 14 - - - - 10 Partly cloudy - 23.2 1012.6 0.0
16/03:36am NNW 11 16 - - - - 10 Partly cloudy - 23.2 1012.5 0.0
16/03:30am NNW 14 18 - - - - 10 Partly cloudy - 23.2 1012.2 0.0
16/03:00am NW 17 22 - - - - 10 Partly cloudy - 23.1 1011.4 0.0
16/02:30am NNW 15 19 - - - - 10 Partly cloudy - 23.1 1011.5 0.0
16/02:23am NNW 14 19 - - - - 10 Partly cloudy - 22.9 1011.7 0.0
16/02:00am NNW 13 18 - - - - 10 Partly cloudy - 22.8 1011.6 0.0
16/01:30am N 8 13 - - - - 10 - - 22.5 1012.2 0.0
16/01:00am NNW 9 13 - - - - 10 - - 22.8 1012.8 0.0
16/12:30am N 7 10 - - - - 10 - - 22.8 1012.9 0.0
16/12:03am NNE 5 6 - - - - 10 Partly cloudy - 23.0 1013.4 0.0
16/12:00am NE 5 6 - - - - 10 Mostly clear - 23.1 1013.3 0.0
 
Date/Time
EST
Wind Sea
Height
m
Swell Vis
km
Cloud Weather Temp
°C
Press
hPa
Rain since
9am
mm
Dir  Spd
kts
Gust
kts
Height
m
Period
s
Dir
15/11:30pm E 8 11 - - - - 10 Partly cloudy - 23.4 1013.7 0.0
15/11:00pm NNW 16 20 - - - - 10 - - 23.2 1012.5 0.0
15/10:30pm NNW 19 23 - - - - 10 - - 23.3 1012.5 0.0
15/10:00pm NW 22 27 - - - - 10 - - 23.4 1012.0 0.0
15/09:30pm NNW 23 30 - - - - 10 - - 23.4 1011.7 0.0
15/09:00pm NNW 25 30 - - - - 10 - - 23.5 1011.6 0.0
15/08:30pm NW 26 32 - - - - 10 - - 23.5 1011.3 0.0
15/08:00pm NW 27 32 - - - - 10 - - 23.6 1011.2 0.0
15/07:30pm NNW 28 33 - - - - 10 - - 23.6 1011.1 0.0
15/07:00pm NNW 27 33 - - - - 10 - - 23.6 1010.9 0.0
15/06:30pm NW 25 31 - - - - 10 - - 23.7 1010.9 0.0
15/06:00pm NNW 23 28 - - - - 10 - - 24.0 1010.8 0.0
15/05:30pm NNW 23 28 - - - - 10 - - 24.5 1010.8 0.0
15/05:00pm NNW 22 25 - - - - 10 - - 25.2 1010.9 0.0
15/04:30pm NNW 22 27 - - - - 10 - - 25.7 1010.5 0.0
15/04:00pm NNW 21 24 - - - - 10 - - 25.9 1010.7 0.0
15/03:30pm NNW 18 21 - - - - 10 - - 26.3 1011.1 0.0
15/03:00pm NNW 20 24 - - - - 10 - - 26.4 1011.4 0.0
15/02:30pm NW 22 26 - - - - 10 - - 26.1 1011.7 0.0
15/02:00pm NW 20 25 - - - - 10 - - 26.1 1012.2 0.0
15/01:30pm NW 20 25 - - - - 10 - - 26.4 1012.5 0.0
15/01:00pm NW 23 28 - - - - 10 - - 26.0 1012.5 0.0
15/12:30pm NW 22 26 - - - - 10 - - 26.0 1013.2 0.0
15/12:00pm NNW 21 27 - - - - 10 - - 26.0 1013.9 0.0
15/11:30am NNW 19 23 - - - - 10 - - 26.5 1014.5 0.0
15/11:00am NNW 19 24 - - - - 10 - - 26.0 1014.8 0.0
15/10:30am NNW 19 24 - - - - 10 - - 25.7 1015.1 0.0
15/10:00am NNW 19 25 - - - - 10 - - 25.8 1015.5 0.0
15/09:30am NNW 18 23 - - - - 10 Partly cloudy - 25.5 1015.7 0.0
15/09:00am NNW 17 22 - - - - 10 Mostly clear - 25.1 1016.0 0.0
15/08:30am NNW 16 21 - - - - 10 Partly cloudy - 24.5 1015.9 0.0
15/08:00am NNW 16 20 - - - - 10 Partly cloudy - 24.1 1015.8 0.0
15/07:30am NNW 11 15 - - - - 10 Partly cloudy - 24.0 1015.7 0.0
15/07:00am N 9 11 - - - - 10 Partly cloudy - 23.5 1015.4 0.0
15/06:30am N 9 12 - - - - 10 Partly cloudy - 23.0 1014.9 0.0
15/06:00am N 8 11 - - - - 10 Partly cloudy - 22.5 1014.8 0.0
15/05:30am N 8 11 - - - - 10 Partly cloudy - 22.4 1014.5 0.0
15/05:00am N 8 12 - - - - 10 Partly cloudy - 22.4 1014.3 0.0
15/04:30am N 10 14 - - - - 10 - - 22.3 1014.0 0.0
15/04:00am N 9 12 - - - - 10 - - 22.3 1014.0 0.0
15/03:30am N 8 11 - - - - 10 - - 22.1 1014.0 0.0
15/03:00am N 8 10 - - - - 10 - - 22.3 1014.2 0.0
15/02:30am N 8 11 - - - - 10 - - 22.1 1014.4 0.0
15/02:00am N 8 9 - - - - 10 - - 22.2 1014.8 0.0
15/01:30am N 10 12 - - - - 10 - - 22.6 1015.2 0.0
15/01:00am N 9 13 - - - - 10 - - 22.7 1015.6 0.0
15/12:30am N 9 12 - - - - 10 - - 22.8 1015.9 0.0
15/12:00am N 9 11 - - - - 10 - - 23.0 1016.3 0.0
 
Date/Time
EST
Wind Sea
Height
m
Swell Vis
km
Cloud Weather Temp
°C
Press
hPa
Rain since
9am
mm
Dir  Spd
kts
Gust
kts
Height
m
Period
s
Dir
14/11:30pm N 8 10 - - - - 10 - - 23.0 1016.5 0.0
14/11:00pm N 7 8 - - - - 10 Partly cloudy - 23.0 1016.6 0.0
14/10:30pm N 8 10 - - - - 10 - - 23.2 1016.6 0.0
14/10:00pm N 9 11 - - - - 10 - - 23.3 1016.5 0.0
14/09:30pm N 9 11 - - - - 10 - - 23.4 1016.5 0.0
14/09:00pm N 8 11 - - - - 10 - - 23.4 1016.5 0.0
14/08:30pm N 9 15 - - - - 10 - - 23.4 1016.2 0.0
14/08:00pm NNE 7 13 - - - - 10 - - 23.4 1016.0 0.0
14/07:30pm NNE 9 13 - - - - 10 - - 23.6 1015.7 0.0
14/07:00pm NNE 7 11 - - - - 10 - - 23.6 1015.6 0.0
14/06:30pm NNE 7 9 - - - - 10 - - 23.8 1015.2 0.0
14/06:00pm N 8 11 - - - - 10 - - 24.3 1014.8 0.0

Other formats

Comma delimited format used in spreadsheet applications
http://www.bom.gov.au/fwo/IDQ60701/IDQ60701.94368.axf

JavaScript Object Notation format (JSON) in row-major order
http://www.bom.gov.au/fwo/IDQ60701/IDQ60701.94368.json

Data quality

Most of these data are generated automatically and are frequently updated. Quality checks on data are not normally performed. It is possible for incorrect values to appear. Refer to information at About Latest Weather Observations and please check the disclaimer before using these data.